createdAt,value
2018-11-10T00:00:52.585Z,14.83
2018-11-10T00:02:56.414Z,13.33
2018-11-10T00:05:00.204Z,12.77
2018-11-10T00:07:05.165Z,12.73
2018-11-10T00:09:09.097Z,11.23
2018-11-10T00:11:12.888Z,9.57
2018-11-10T00:13:16.640Z,10.27
2018-11-10T00:15:20.376Z,10.00
2018-11-10T00:17:30.859Z,9.33
2018-11-10T00:19:34.634Z,9.57
2018-11-10T00:21:38.397Z,10.50
2018-11-10T00:23:42.355Z,10.00
2018-11-10T00:25:46.196Z,9.20
2018-11-10T00:27:49.954Z,9.60
2018-11-10T00:29:53.862Z,9.90
2018-11-10T00:31:57.708Z,9.27
2018-11-10T00:34:01.532Z,9.00
2018-11-10T00:36:05.608Z,10.80
2018-11-10T00:38:09.570Z,10.37
2018-11-10T00:40:14.674Z,10.47
2018-11-10T00:42:18.497Z,9.20
2018-11-10T00:44:22.300Z,9.40
2018-11-10T00:46:26.158Z,9.90
2018-11-10T00:48:29.870Z,8.80
2018-11-10T00:50:33.669Z,9.00
2018-11-10T00:52:37.892Z,7.67
2018-11-10T00:54:41.905Z,7.97
2018-11-10T00:56:45.810Z,7.50
2018-11-10T00:58:49.613Z,8.70
2018-11-10T01:00:53.404Z,10.13
2018-11-10T01:02:57.196Z,9.70
2018-11-10T01:05:00.939Z,9.63
2018-11-10T01:07:05.321Z,9.87
2018-11-10T01:09:09.645Z,10.30
2018-11-10T01:11:13.412Z,9.90
2018-11-10T01:13:17.190Z,11.27
2018-11-10T01:15:20.988Z,10.73
2018-11-10T01:17:24.827Z,9.60
2018-11-10T01:19:34.910Z,9.67
2018-11-10T01:21:38.800Z,9.17
2018-11-10T01:23:42.562Z,10.80
2018-11-10T01:25:46.638Z,10.30
2018-11-10T01:27:50.437Z,12.83
2018-11-10T01:29:54.211Z,10.93
2018-11-10T01:31:58.086Z,11.30
2018-11-10T01:34:01.888Z,11.87
2018-11-10T01:36:06.093Z,11.10
2018-11-10T01:38:09.825Z,10.70
2018-11-10T01:40:14.593Z,9.50
2018-11-10T01:42:18.453Z,10.20
2018-11-10T01:44:22.307Z,9.97
2018-11-10T01:46:26.047Z,9.63
2018-11-10T01:48:29.849Z,9.20
2018-11-10T01:50:33.593Z,10.53
2018-11-10T01:52:37.443Z,9.10
2018-11-10T01:54:41.303Z,10.10
2018-11-10T01:56:45.133Z,8.83
2018-11-10T01:58:48.978Z,8.90
2018-11-10T02:00:52.797Z,8.97
2018-11-10T02:02:56.566Z,9.10
2018-11-10T02:05:00.346Z,9.00
2018-11-10T02:07:04.269Z,8.53
2018-11-10T02:09:09.208Z,9.10
2018-11-10T02:11:12.999Z,8.07
2018-11-10T02:13:16.833Z,9.20
2018-11-10T02:15:20.623Z,8.80
2018-11-10T02:17:24.417Z,8.33
2018-11-10T02:19:28.219Z,9.10
2018-11-10T02:21:31.962Z,8.10
2018-11-10T02:23:35.711Z,9.07
2018-11-10T02:25:39.545Z,8.60
2018-11-10T02:27:43.387Z,8.30
2018-11-10T02:29:47.529Z,8.43
2018-11-10T02:31:51.406Z,9.40
2018-11-10T02:33:55.252Z,8.30
2018-11-10T02:35:59.005Z,10.10
2018-11-10T02:38:02.750Z,9.60
2018-11-10T02:40:08.332Z,9.47
2018-11-10T02:42:12.173Z,8.63
2018-11-10T02:44:15.959Z,9.80
2018-11-10T02:46:19.669Z,9.00
2018-11-10T02:49:54.219Z,8.80
2018-11-10T02:51:59.014Z,10.47
2018-11-10T02:54:02.778Z,10.83
2018-11-10T02:56:06.562Z,12.43
2018-11-10T02:58:10.393Z,13.40
2018-11-10T03:00:15.154Z,13.47
2018-11-10T03:02:18.941Z,13.10
2018-11-10T03:04:22.916Z,14.93
2018-11-10T03:06:26.656Z,13.43
2018-11-10T03:08:30.487Z,14.97
2018-11-10T03:10:34.314Z,15.13
2018-11-10T03:12:38.744Z,15.57
2018-11-10T03:14:42.636Z,14.97
2018-11-10T03:16:46.440Z,14.70
2018-11-10T03:18:50.183Z,13.97
2018-11-10T03:20:53.957Z,15.10
2018-11-10T03:22:57.748Z,13.07
2018-11-10T03:25:01.528Z,12.63
2018-11-10T03:27:05.511Z,14.20
2018-11-10T03:29:09.265Z,14.10
2018-11-10T03:31:13.011Z,13.30
2018-11-10T03:33:16.773Z,13.37
2018-11-10T03:35:20.556Z,14.37
2018-11-10T03:37:24.246Z,14.37
2018-11-10T03:39:28.036Z,12.80
2018-11-10T03:41:31.847Z,12.53
2018-11-10T03:43:35.605Z,11.80
2018-11-10T03:45:39.420Z,13.07
2018-11-10T03:47:43.237Z,12.67
2018-11-10T03:49:47.017Z,12.90
2018-11-10T03:51:50.810Z,13.10
2018-11-10T03:53:54.680Z,11.13
2018-11-10T03:55:58.408Z,11.97
2018-11-10T03:58:02.205Z,10.67
2018-11-10T04:00:07.305Z,11.73
2018-11-10T04:02:11.064Z,11.27
2018-11-10T04:04:14.984Z,10.93
2018-11-10T04:06:18.820Z,10.90
2018-11-10T04:08:22.766Z,10.37
2018-11-10T04:10:26.539Z,10.90
2018-11-10T04:12:30.285Z,10.50
2018-11-10T04:14:34.118Z,11.20
2018-11-10T04:16:37.896Z,10.80
2018-11-10T04:18:41.784Z,10.33
2018-11-10T04:20:45.611Z,10.73
2018-11-10T04:22:49.390Z,10.87
2018-11-10T04:24:53.629Z,9.80
2018-11-10T04:26:57.472Z,9.63
2018-11-10T04:29:01.198Z,10.73
2018-11-10T04:31:05.149Z,11.33
2018-11-10T04:33:08.962Z,10.30
2018-11-10T04:35:12.784Z,9.73
2018-11-10T04:37:16.582Z,9.60
2018-11-10T04:39:20.350Z,10.10
2018-11-10T04:41:24.496Z,10.23
2018-11-10T04:43:28.281Z,10.90
2018-11-10T04:45:32.098Z,10.33
2018-11-10T04:47:35.875Z,9.60
2018-11-10T04:49:40.104Z,10.43
2018-11-10T04:51:43.885Z,10.20
2018-11-10T04:53:47.638Z,9.10
2018-11-10T04:55:51.449Z,9.77
2018-11-10T04:57:55.147Z,9.33
2018-11-10T04:59:58.912Z,9.87
2018-11-10T05:02:02.681Z,9.33
2018-11-10T05:04:07.002Z,8.37
2018-11-10T05:06:10.835Z,9.23
2018-11-10T05:08:14.632Z,8.87
2018-11-10T05:10:18.424Z,8.07
2018-11-10T05:12:22.188Z,8.20
2018-11-10T05:14:32.798Z,8.33
2018-11-10T05:16:36.556Z,8.77
2018-11-10T05:18:40.284Z,7.47
2018-11-10T05:20:44.071Z,8.57
2018-11-10T05:22:47.876Z,7.63
2018-11-10T05:24:51.728Z,7.63
2018-11-10T05:26:55.504Z,8.77
2018-11-10T05:28:59.333Z,8.03
2018-11-10T05:31:03.190Z,7.80
2018-11-10T05:33:06.912Z,7.60
2018-11-10T05:35:10.740Z,7.40
2018-11-10T05:37:14.486Z,7.30
2018-11-10T05:39:18.354Z,7.20
2018-11-10T05:41:22.149Z,8.03
2018-11-10T05:43:25.879Z,8.17
2018-11-10T05:45:29.744Z,7.60
2018-11-10T05:47:33.504Z,7.70
2018-11-10T05:49:37.332Z,8.37
2018-11-10T05:51:41.136Z,7.67
2018-11-10T05:53:44.984Z,8.33
2018-11-10T05:55:48.745Z,8.70
2018-11-10T05:57:52.432Z,7.70
2018-11-10T05:59:56.185Z,7.90
2018-11-10T06:02:00.007Z,8.97
2018-11-10T06:04:03.821Z,7.60
2018-11-10T06:06:08.099Z,7.33
2018-11-10T06:08:11.914Z,7.67
2018-11-10T06:10:15.836Z,7.60
2018-11-10T06:12:19.568Z,7.87
2018-11-10T06:14:23.385Z,8.20
2018-11-10T06:16:27.185Z,7.73
2018-11-10T06:18:31.047Z,8.50
2018-11-10T06:20:34.812Z,7.43
2018-11-10T06:22:38.699Z,6.70
2018-11-10T06:24:42.462Z,7.40
2018-11-10T06:26:46.298Z,7.90
2018-11-10T06:28:50.186Z,7.30
2018-11-10T06:30:54.106Z,9.17
2018-11-10T06:32:57.867Z,7.70
2018-11-10T06:35:01.636Z,8.33
2018-11-10T06:37:05.583Z,7.47
2018-11-10T06:39:11.046Z,6.90
2018-11-10T06:41:14.967Z,8.10
2018-11-10T06:43:18.835Z,7.67
2018-11-10T06:45:22.686Z,7.23
2018-11-10T06:47:26.654Z,8.03
2018-11-10T06:49:30.523Z,8.50
2018-11-10T06:51:34.754Z,8.10
2018-11-10T06:53:38.764Z,8.57
2018-11-10T06:55:42.636Z,8.07
2018-11-10T06:57:46.578Z,7.57
2018-11-10T06:59:50.512Z,9.13
2018-11-10T07:01:54.386Z,8.57
2018-11-10T07:03:58.222Z,10.67
2018-11-10T07:06:02.153Z,8.33
2018-11-10T07:08:06.451Z,10.00
2018-11-10T07:10:11.316Z,7.93
2018-11-10T07:12:15.188Z,6.70
2018-11-10T07:14:19.026Z,7.37
2018-11-10T07:16:22.859Z,6.90
2018-11-10T07:18:26.700Z,8.20
2018-11-10T07:20:30.549Z,8.00
2018-11-10T07:22:34.340Z,7.57
2018-11-10T07:24:38.176Z,9.10
2018-11-10T07:26:41.963Z,8.90
2018-11-10T07:28:45.775Z,7.97
2018-11-10T07:30:49.536Z,9.00
2018-11-10T07:32:53.439Z,9.37
2018-11-10T07:34:57.245Z,8.17
2018-11-10T07:37:01.212Z,8.30
2018-11-10T07:39:06.940Z,8.57
2018-11-10T07:41:10.862Z,7.57
2018-11-10T07:43:14.828Z,7.27
2018-11-10T07:45:18.576Z,7.00
2018-11-10T07:47:22.484Z,7.80
2018-11-10T07:49:26.393Z,9.43
2018-11-10T07:51:30.252Z,9.00
2018-11-10T07:53:34.073Z,9.00
2018-11-10T07:55:37.984Z,8.23
2018-11-10T07:57:41.828Z,7.33
2018-11-10T07:59:45.563Z,8.83
2018-11-10T08:01:52.400Z,6.90
2018-11-10T08:03:56.363Z,7.30
2018-11-10T08:06:00.318Z,7.20
2018-11-10T08:08:04.191Z,6.97
2018-11-10T08:10:08.294Z,6.93
2018-11-10T08:12:12.155Z,7.20
2018-11-10T08:14:16.012Z,7.20
2018-11-10T08:16:19.846Z,6.40
2018-11-10T08:18:23.795Z,6.93
2018-11-10T08:20:29.468Z,7.30
2018-11-10T08:22:33.607Z,6.80
2018-11-10T08:24:37.333Z,6.50
2018-11-10T08:26:41.289Z,7.47
2018-11-10T08:28:45.087Z,8.30
2018-11-10T08:30:48.990Z,7.30
2018-11-10T08:32:52.791Z,7.37
2018-11-10T08:34:56.562Z,8.07
2018-11-10T08:37:00.356Z,8.03
2018-11-10T08:39:07.118Z,6.97
2018-11-10T08:41:10.928Z,6.97
2018-11-10T08:43:14.717Z,7.00
2018-11-10T08:45:18.507Z,8.90
2018-11-10T08:47:22.404Z,8.60
2018-11-10T08:49:26.152Z,9.50
2018-11-10T08:51:29.935Z,8.93
2018-11-10T08:53:34.858Z,10.20
2018-11-10T08:55:38.742Z,8.77
2018-11-10T08:57:43.169Z,9.17
2018-11-10T08:59:46.950Z,8.00
2018-11-10T09:01:50.859Z,7.97
2018-11-10T09:03:54.699Z,7.77
2018-11-10T09:05:58.587Z,6.00
2018-11-10T09:08:02.444Z,6.30
2018-11-10T09:10:07.588Z,5.60
2018-11-10T09:12:11.457Z,6.17
2018-11-10T09:14:15.271Z,5.27
2018-11-10T09:16:19.103Z,5.80
2018-11-10T09:18:23.949Z,5.63
2018-11-10T09:20:28.124Z,5.60
2018-11-10T09:22:31.963Z,4.83
2018-11-10T09:24:36.065Z,5.90
2018-11-10T09:26:39.976Z,5.03
2018-11-10T09:28:43.880Z,5.90
2018-11-10T09:30:47.720Z,5.87
2018-11-10T09:32:51.493Z,5.63
2018-11-10T09:34:55.300Z,5.60
2018-11-10T09:36:59.180Z,5.90
2018-11-10T09:39:03.048Z,5.50
2018-11-10T09:41:06.835Z,5.40
2018-11-10T09:43:10.803Z,5.50
2018-11-10T09:45:15.835Z,6.00
2018-11-10T09:47:19.739Z,6.00
2018-11-10T09:49:23.600Z,6.00
2018-11-10T09:51:27.438Z,5.80
2018-11-10T09:53:31.279Z,5.70
2018-11-10T09:55:35.022Z,5.70
2018-11-10T09:57:39.025Z,4.67
2018-11-10T09:59:42.849Z,5.00
2018-11-10T10:01:46.926Z,5.47
2018-11-10T10:03:50.500Z,5.37
2018-11-10T10:05:54.331Z,5.67
2018-11-10T10:07:58.175Z,5.90
2018-11-10T10:10:01.965Z,5.70
2018-11-10T10:12:05.997Z,5.80
2018-11-10T10:14:10.645Z,5.67
2018-11-10T10:16:15.085Z,5.67
2018-11-10T10:18:18.807Z,5.50
2018-11-10T10:20:22.638Z,5.50
2018-11-10T10:22:26.433Z,5.70
2018-11-10T10:24:30.267Z,4.73
2018-11-10T10:26:34.148Z,4.90
2018-11-10T10:28:38.947Z,5.10
2018-11-10T10:30:42.773Z,5.10
2018-11-10T10:32:47.585Z,4.43
2018-11-10T10:34:51.419Z,5.10
2018-11-10T10:36:55.243Z,6.07
2018-11-10T10:38:59.122Z,4.90
2018-11-10T10:41:02.971Z,5.03
2018-11-10T10:43:06.906Z,6.33
2018-11-10T10:45:13.067Z,5.63
2018-11-10T10:47:16.833Z,5.13
2018-11-10T10:49:22.806Z,5.23
2018-11-10T10:51:26.884Z,5.20
2018-11-10T10:53:31.018Z,5.07
2018-11-10T10:55:35.004Z,5.00
2018-11-10T10:57:38.876Z,5.13
2018-11-10T10:59:42.644Z,4.50
2018-11-10T11:01:51.701Z,5.33
2018-11-10T11:04:00.965Z,5.23
2018-11-10T11:06:04.903Z,4.77
2018-11-10T11:08:08.730Z,5.83
2018-11-10T11:10:12.502Z,6.30
2018-11-10T11:12:16.372Z,5.70
2018-11-10T11:14:20.235Z,6.10
2018-11-10T11:16:24.006Z,4.97
2018-11-10T11:18:27.967Z,4.40
2018-11-10T11:20:31.768Z,5.53
2018-11-10T11:22:35.594Z,4.70
2018-11-10T11:24:39.469Z,4.70
2018-11-10T11:26:43.223Z,5.40
2018-11-10T11:28:47.056Z,3.47
2018-11-10T11:30:50.897Z,4.30
2018-11-10T11:32:54.714Z,3.40
2018-11-10T11:34:58.526Z,3.40
2018-11-10T11:37:02.356Z,3.67
2018-11-10T11:39:09.539Z,3.10
2018-11-10T11:41:13.389Z,2.80
2018-11-10T11:43:17.176Z,2.60
2018-11-10T11:45:21.047Z,3.37
2018-11-10T11:47:24.932Z,4.40
2018-11-10T11:49:28.793Z,2.83
2018-11-10T11:51:32.592Z,3.47
2018-11-10T11:53:36.359Z,3.57
2018-11-10T11:55:40.171Z,3.40
2018-11-10T11:57:43.997Z,3.70
2018-11-10T11:59:47.890Z,3.03
2018-11-10T12:01:51.733Z,3.17
2018-11-10T12:03:56.110Z,3.40
2018-11-10T12:05:59.867Z,2.83
2018-11-10T12:08:03.609Z,3.27
2018-11-10T12:10:08.921Z,3.00
2018-11-10T12:12:12.699Z,2.60
2018-11-10T12:14:16.584Z,3.93
2018-11-10T12:16:27.197Z,3.23
2018-11-10T12:18:24.161Z,3.20
2018-11-10T12:20:28.023Z,2.97
2018-11-10T12:22:31.817Z,2.80
2018-11-10T12:24:35.821Z,3.13
2018-11-10T12:26:39.594Z,2.63
2018-11-10T12:28:43.456Z,2.97
2018-11-10T12:30:47.331Z,2.77
2018-11-10T12:32:51.263Z,2.90
2018-11-10T12:34:55.253Z,2.70
2018-11-10T12:36:59.100Z,2.57
2018-11-10T12:39:03.002Z,2.73
2018-11-10T12:41:06.928Z,2.17
2018-11-10T12:43:10.760Z,2.37
2018-11-10T12:45:14.920Z,2.30
2018-11-10T12:47:18.815Z,2.40
2018-11-10T12:49:22.862Z,2.17
2018-11-10T12:51:26.739Z,2.40
2018-11-10T12:53:30.636Z,2.30
2018-11-10T12:55:34.547Z,2.20
2018-11-10T12:57:38.559Z,2.93
2018-11-10T12:59:42.695Z,2.30
2018-11-10T13:01:47.381Z,2.20
2018-11-10T13:03:51.297Z,2.20
2018-11-10T13:05:55.136Z,2.90
2018-11-10T13:07:59.087Z,2.57
2018-11-10T13:10:02.963Z,2.50
2018-11-10T13:12:06.887Z,2.80
2018-11-10T13:14:11.435Z,2.83
2018-11-10T13:16:15.374Z,3.13
2018-11-10T13:18:19.148Z,3.30
2018-11-10T13:20:22.954Z,2.73
2018-11-10T13:22:26.828Z,3.00
2018-11-10T13:24:30.735Z,3.00
2018-11-10T13:26:34.619Z,3.97
2018-11-10T13:28:38.491Z,3.33
2018-11-10T13:30:42.402Z,3.60
2018-11-10T13:32:46.304Z,4.23
2018-11-10T13:34:50.258Z,3.77
2018-11-10T13:36:54.117Z,3.20
2018-11-10T13:38:58.004Z,4.93
2018-11-10T13:41:01.954Z,5.63
2018-11-10T13:43:06.085Z,5.00
2018-11-10T13:45:11.606Z,4.97
2018-11-10T13:47:15.602Z,4.30
2018-11-10T13:49:19.486Z,4.60
2018-11-10T13:51:23.566Z,5.03
2018-11-10T13:53:27.410Z,4.40
2018-11-10T13:55:31.248Z,4.97
2018-11-10T13:57:35.150Z,5.07
2018-11-10T13:59:39.054Z,4.57
2018-11-10T14:01:43.325Z,4.77
2018-11-10T14:03:47.140Z,4.70
2018-11-10T14:05:51.026Z,5.00
2018-11-10T14:07:54.846Z,4.67
2018-11-10T14:09:59.144Z,5.07
2018-11-10T14:12:03.531Z,5.00
2018-11-10T14:14:08.831Z,4.57
2018-11-10T14:16:14.796Z,4.10
2018-11-10T14:18:18.776Z,4.17
2018-11-10T14:20:23.540Z,4.20
2018-11-10T14:22:27.605Z,4.63
2018-11-10T14:24:31.697Z,4.50
2018-11-10T14:26:35.546Z,4.50
2018-11-10T14:28:39.408Z,4.33
2018-11-10T14:30:43.274Z,4.43
2018-11-10T14:32:47.574Z,4.70
2018-11-10T14:34:51.324Z,4.67
2018-11-10T14:36:56.020Z,3.97
2018-11-10T14:38:59.935Z,3.60
2018-11-10T14:41:03.794Z,3.37
2018-11-10T14:43:07.774Z,3.90
2018-11-10T14:45:17.690Z,3.70
2018-11-10T14:47:21.663Z,3.27
2018-11-10T14:49:25.714Z,3.63
2018-11-10T14:51:29.615Z,4.67
2018-11-10T14:53:33.760Z,3.80
2018-11-10T14:55:37.618Z,3.13
2018-11-10T14:57:41.879Z,3.33
2018-11-10T14:59:45.763Z,2.93
2018-11-10T15:01:49.663Z,3.43
2018-11-10T15:03:53.488Z,3.80
2018-11-10T15:05:57.317Z,3.97
2018-11-10T15:08:01.236Z,3.00
2018-11-10T15:10:06.917Z,2.90
2018-11-10T15:12:10.932Z,2.50
2018-11-10T15:14:14.854Z,2.83
2018-11-10T15:16:18.738Z,2.97
2018-11-10T15:18:22.828Z,2.93
2018-11-10T15:20:27.721Z,3.33
2018-11-10T15:22:31.671Z,3.27
2018-11-10T15:24:35.560Z,3.20
2018-11-10T15:26:39.440Z,4.53
2018-11-10T15:28:43.323Z,3.47
2018-11-10T15:30:47.192Z,3.43
2018-11-10T15:32:51.432Z,3.40
2018-11-10T15:34:55.314Z,5.10
2018-11-10T15:36:59.217Z,3.00
2018-11-10T15:39:03.325Z,3.80
2018-11-10T15:41:07.265Z,4.10
2018-11-10T15:43:11.148Z,3.80
2018-11-10T15:45:16.008Z,4.00
2018-11-10T15:47:20.189Z,6.73
2018-11-10T15:49:23.964Z,6.83
2018-11-10T15:51:28.234Z,8.93
2018-11-10T15:53:32.301Z,7.50
2018-11-10T15:55:36.296Z,7.00
2018-11-10T15:57:40.831Z,8.73
2018-11-10T15:59:44.909Z,6.20
2018-11-10T16:01:49.150Z,5.43
2018-11-10T16:03:53.274Z,6.80
2018-11-10T16:05:57.201Z,4.87
2018-11-10T16:08:01.373Z,3.53
2018-11-10T16:10:05.632Z,4.20
2018-11-10T16:12:10.272Z,4.97
2018-11-10T16:14:15.574Z,3.70
2018-11-10T16:16:19.817Z,3.27
2018-11-10T16:18:24.532Z,4.20
2018-11-10T16:20:28.903Z,4.10
2018-11-10T16:22:32.751Z,4.37
2018-11-10T16:24:36.827Z,4.20
2018-11-10T16:26:40.867Z,3.50
2018-11-10T16:28:45.092Z,3.10
2018-11-10T16:30:49.027Z,2.90
2018-11-10T16:32:52.896Z,3.23
2018-11-10T16:34:56.898Z,3.50
2018-11-10T16:37:00.916Z,3.40
2018-11-10T16:39:06.065Z,2.53
2018-11-10T16:41:09.880Z,3.10
2018-11-10T16:43:13.767Z,3.40
2018-11-10T16:45:18.550Z,3.07
2018-11-10T16:47:22.381Z,3.00
2018-11-10T16:49:26.358Z,3.80
2018-11-10T16:51:30.269Z,3.27
2018-11-10T16:53:34.292Z,3.30
2018-11-10T16:55:38.869Z,3.00
2018-11-10T16:57:42.668Z,3.07
2018-11-10T16:59:46.517Z,3.50
2018-11-10T17:01:50.414Z,3.47
2018-11-10T17:03:54.317Z,3.87
2018-11-10T17:05:58.147Z,3.60
2018-11-10T17:08:02.050Z,4.00
2018-11-10T17:10:07.836Z,3.30
2018-11-10T17:12:11.604Z,3.03
2018-11-10T17:14:15.546Z,2.77
2018-11-10T17:16:19.435Z,2.97
2018-11-10T17:18:23.265Z,2.80
2018-11-10T17:20:27.090Z,3.47
2018-11-10T17:22:30.952Z,3.80
2018-11-10T17:24:34.876Z,5.77
2018-11-10T17:26:38.698Z,4.67
2018-11-10T17:28:42.587Z,4.70
2018-11-10T17:30:46.399Z,3.43
2018-11-10T17:32:50.227Z,3.00
2018-11-10T17:34:54.061Z,2.80
2018-11-10T17:36:57.943Z,2.50
2018-11-10T17:39:01.888Z,3.10
2018-11-10T17:41:05.748Z,4.00
2018-11-10T17:43:09.647Z,4.30
2018-11-10T17:45:14.854Z,3.40
2018-11-10T17:47:18.722Z,3.77
2018-11-10T17:49:22.674Z,4.77
2018-11-10T17:51:26.941Z,4.10
2018-11-10T17:53:30.911Z,3.83
2018-11-10T17:55:34.724Z,3.70
2018-11-10T17:57:38.547Z,4.13
2018-11-10T17:59:42.390Z,4.70
2018-11-10T18:01:46.321Z,3.63
2018-11-10T18:03:50.165Z,3.63
2018-11-10T18:05:54.034Z,4.33
2018-11-10T18:07:58.329Z,4.80
2018-11-10T18:10:02.290Z,3.13
2018-11-10T18:12:06.923Z,3.80
2018-11-10T18:14:10.917Z,3.70
2018-11-10T18:16:14.737Z,3.40
2018-11-10T18:18:18.511Z,4.03
2018-11-10T18:20:22.375Z,3.33
2018-11-10T18:22:26.462Z,3.80
2018-11-10T18:24:30.661Z,3.70
2018-11-10T18:26:34.542Z,3.83
2018-11-10T18:28:38.485Z,4.03
2018-11-10T18:30:42.429Z,5.50
2018-11-10T18:32:46.637Z,4.53
2018-11-10T18:34:50.368Z,3.80
2018-11-10T18:36:54.365Z,3.83
2018-11-10T18:38:58.300Z,5.10
2018-11-10T18:41:02.182Z,4.10
2018-11-10T18:43:06.611Z,4.90
2018-11-10T18:45:11.354Z,6.00
2018-11-10T18:47:15.485Z,3.90
2018-11-10T18:49:19.422Z,4.57
2018-11-10T18:51:23.523Z,4.03
2018-11-10T18:53:27.559Z,4.77
2018-11-10T18:55:31.482Z,3.90
2018-11-10T18:57:35.480Z,5.77
2018-11-10T18:59:39.337Z,4.80
2018-11-10T19:01:43.214Z,3.70
2018-11-10T19:03:47.284Z,4.27
2018-11-10T19:05:51.196Z,4.10
2018-11-10T19:07:55.256Z,3.67
2018-11-10T19:09:59.136Z,4.50
2018-11-10T19:12:03.134Z,3.90
2018-11-10T19:14:07.151Z,4.77
2018-11-10T19:16:10.999Z,3.77
2018-11-10T19:18:14.867Z,4.40
2018-11-10T19:20:19.049Z,4.13
2018-11-10T19:22:23.319Z,4.03
2018-11-10T19:24:27.318Z,4.33
2018-11-10T19:26:31.223Z,3.83
2018-11-10T19:28:35.242Z,4.60
2018-11-10T19:30:39.180Z,4.20
2018-11-10T19:32:43.462Z,4.77
2018-11-10T19:34:47.354Z,4.70
2018-11-10T19:36:51.307Z,5.00
2018-11-10T19:38:55.179Z,3.60
2018-11-10T19:40:59.213Z,4.60
2018-11-10T19:43:03.093Z,4.73
2018-11-10T19:45:08.017Z,5.10
2018-11-10T19:47:11.861Z,5.13
2018-11-10T19:49:16.110Z,5.93
2018-11-10T19:51:20.236Z,6.70
2018-11-10T19:53:24.129Z,6.37
2018-11-10T19:55:28.062Z,6.00
2018-11-10T19:57:32.084Z,6.33
2018-11-10T19:59:35.998Z,6.10
2018-11-10T20:01:40.019Z,6.67
2018-11-10T20:03:44.093Z,6.57
2018-11-10T20:05:48.068Z,7.57
2018-11-10T20:07:52.093Z,6.30
2018-11-10T20:09:56.020Z,5.43
2018-11-10T20:12:00.038Z,6.67
2018-11-10T20:14:05.783Z,6.40
2018-11-10T20:16:10.472Z,6.60
2018-11-10T20:18:14.717Z,6.13
2018-11-10T20:20:19.342Z,6.47
2018-11-10T20:22:23.413Z,6.10
2018-11-10T20:24:28.128Z,6.50
2018-11-10T20:26:32.181Z,6.60
2018-11-10T20:28:36.339Z,6.17
2018-11-10T20:30:40.731Z,7.00
2018-11-10T20:32:45.469Z,6.47
2018-11-10T20:34:49.819Z,5.90
2018-11-10T20:36:54.357Z,7.03
2018-11-10T20:38:58.344Z,6.30
2018-11-10T20:41:02.164Z,6.70
2018-11-10T20:43:06.734Z,6.20
2018-11-10T20:45:14.078Z,6.23
2018-11-10T20:47:17.947Z,6.50
2018-11-10T20:49:21.844Z,6.17
2018-11-10T20:51:25.751Z,6.03
2018-11-10T20:53:29.846Z,6.07
2018-11-10T20:55:33.770Z,5.90
2018-11-10T20:57:38.067Z,5.17
2018-11-10T20:59:42.129Z,5.90
2018-11-10T21:01:46.559Z,5.00
2018-11-10T21:03:51.021Z,5.50
2018-11-10T21:05:55.023Z,6.10
2018-11-10T21:08:00.752Z,5.20
2018-11-10T21:10:05.351Z,5.50
2018-11-10T21:12:10.290Z,5.70
2018-11-10T21:14:14.240Z,6.30
2018-11-10T21:16:18.177Z,5.63
2018-11-10T21:18:22.173Z,5.90
2018-11-10T21:20:27.007Z,7.60
2018-11-10T21:22:30.882Z,5.07
2018-11-10T21:24:34.791Z,6.00
2018-11-10T21:26:39.778Z,5.90
2018-11-10T21:28:43.751Z,5.50
2018-11-10T21:30:48.678Z,5.50
2018-11-10T21:32:52.563Z,6.67
2018-11-10T21:34:56.738Z,11.00
2018-11-10T21:37:02.655Z,6.57
2018-11-10T21:39:11.130Z,6.33
2018-11-10T21:41:17.547Z,5.63
2018-11-10T21:43:21.323Z,6.47
2018-11-10T21:45:25.501Z,5.77
2018-11-10T21:47:29.378Z,5.47
2018-11-10T21:49:33.589Z,5.70
2018-11-10T21:51:37.176Z,5.77
2018-11-10T21:53:41.013Z,4.63
2018-11-10T21:55:44.769Z,5.20
2018-11-10T21:57:49.255Z,4.57
2018-11-10T21:59:53.019Z,4.70
2018-11-10T22:01:57.234Z,4.70
2018-11-10T22:04:01.159Z,4.17
2018-11-10T22:06:05.816Z,4.40
2018-11-10T22:08:10.589Z,5.23
2018-11-10T22:10:15.737Z,4.50
2018-11-10T22:12:19.538Z,4.20
2018-11-10T22:14:23.324Z,3.80
2018-11-10T22:16:28.374Z,4.53
2018-11-10T22:18:32.172Z,4.73
2018-11-10T22:20:37.121Z,4.60
2018-11-10T22:22:41.099Z,4.60
2018-11-10T22:24:44.825Z,3.53
2018-11-10T22:26:48.565Z,5.20
2018-11-10T22:28:52.367Z,4.40
2018-11-10T22:30:56.184Z,5.10
2018-11-10T22:32:59.959Z,5.17
2018-11-10T22:35:03.798Z,5.27
2018-11-10T22:37:07.703Z,2.77
2018-11-10T22:39:11.709Z,3.33
2018-11-10T22:41:15.463Z,3.70
2018-11-10T22:43:19.248Z,3.07
2018-11-10T22:45:23.049Z,3.87
2018-11-10T22:47:26.828Z,2.67
2018-11-10T22:49:30.622Z,2.30
2018-11-10T22:51:34.395Z,3.10
2018-11-10T22:53:38.213Z,2.60
2018-11-10T22:55:41.992Z,3.83
2018-11-10T22:57:46.138Z,3.00
2018-11-10T22:59:49.903Z,3.70
2018-11-10T23:01:53.675Z,3.97
2018-11-10T23:03:57.479Z,3.50
2018-11-10T23:06:01.257Z,3.60
2018-11-10T23:08:05.016Z,3.80
2018-11-10T23:10:09.288Z,3.50
2018-11-10T23:12:13.990Z,4.40
2018-11-10T23:14:17.851Z,4.20
2018-11-10T23:16:21.611Z,4.30
2018-11-10T23:18:25.447Z,3.43
2018-11-10T23:20:29.256Z,3.30
2018-11-10T23:22:33.044Z,3.40
2018-11-10T23:24:36.984Z,3.23
2018-11-10T23:26:40.726Z,3.03
2018-11-10T23:28:44.562Z,3.40
2018-11-10T23:30:48.270Z,3.37
2018-11-10T23:32:52.083Z,3.20
2018-11-10T23:34:55.911Z,3.10
2018-11-10T23:36:59.861Z,3.07
2018-11-10T23:39:04.310Z,2.80
2018-11-10T23:41:08.280Z,3.00
2018-11-10T23:43:12.106Z,2.93
2018-11-10T23:45:16.605Z,2.80
2018-11-10T23:47:20.421Z,2.50
2018-11-10T23:49:24.189Z,2.57
2018-11-10T23:51:28.156Z,2.70
2018-11-10T23:53:32.960Z,2.90
2018-11-10T23:55:36.795Z,2.20
2018-11-10T23:57:40.624Z,2.50
2018-11-10T23:59:44.461Z,2.30
